sensor_id;sensor_type;location;lat;lon;timestamp;P1;durP1;ratioP1;P2;durP2;ratioP2
60908;SDS011;46780;48.128;-1.704;2023-08-30T00:02:12;15.07;;;5.88;;
60908;SDS011;46780;48.128;-1.704;2023-08-30T00:04:39;13.80;;;5.53;;
60908;SDS011;46780;48.128;-1.704;2023-08-30T00:07:07;14.73;;;5.68;;
60908;SDS011;46780;48.128;-1.704;2023-08-30T00:09:35;13.32;;;5.70;;
60908;SDS011;46780;48.128;-1.704;2023-08-30T00:12:01;13.05;;;5.50;;
60908;SDS011;46780;48.128;-1.704;2023-08-30T00:14:28;14.85;;;5.43;;
60908;SDS011;46780;48.128;-1.704;2023-08-30T00:16:55;16.75;;;5.85;;
60908;SDS011;46780;48.128;-1.704;2023-08-30T00:19:21;12.73;;;5.13;;
60908;SDS011;46780;48.128;-1.704;2023-08-30T00:21:47;15.57;;;5.55;;
60908;SDS011;46780;48.128;-1.704;2023-08-30T00:24:14;13.68;;;5.35;;
60908;SDS011;46780;48.128;-1.704;2023-08-30T00:26:42;15.25;;;5.55;;
60908;SDS011;46780;48.128;-1.704;2023-08-30T00:29:08;14.57;;;5.53;;
60908;SDS011;46780;48.128;-1.704;2023-08-30T00:31:34;14.25;;;5.35;;
60908;SDS011;46780;48.128;-1.704;2023-08-30T00:34:01;14.25;;;5.20;;
60908;SDS011;46780;48.128;-1.704;2023-08-30T00:36:27;13.27;;;5.43;;
60908;SDS011;46780;48.128;-1.704;2023-08-30T00:38:54;13.38;;;5.28;;
60908;SDS011;46780;48.128;-1.704;2023-08-30T00:41:20;14.52;;;5.50;;
60908;SDS011;46780;48.128;-1.704;2023-08-30T00:43:48;12.38;;;5.70;;
60908;SDS011;46780;48.128;-1.704;2023-08-30T00:46:14;12.63;;;5.72;;
60908;SDS011;46780;48.128;-1.704;2023-08-30T00:48:43;12.05;;;5.15;;
60908;SDS011;46780;48.128;-1.704;2023-08-30T00:51:10;15.30;;;5.43;;
60908;SDS011;46780;48.128;-1.704;2023-08-30T00:53:37;16.80;;;5.95;;
60908;SDS011;46780;48.128;-1.704;2023-08-30T00:56:04;17.90;;;5.90;;
60908;SDS011;46780;48.128;-1.704;2023-08-30T00:58:30;12.75;;;5.22;;
60908;SDS011;46780;48.128;-1.704;2023-08-30T01:00:58;13.07;;;6.07;;
60908;SDS011;46780;48.128;-1.704;2023-08-30T01:03:25;13.95;;;5.63;;
60908;SDS011;46780;48.128;-1.704;2023-08-30T01:05:51;12.20;;;5.55;;
60908;SDS011;46780;48.128;-1.704;2023-08-30T01:08:18;14.07;;;5.65;;
60908;SDS011;46780;48.128;-1.704;2023-08-30T01:10:47;13.48;;;5.63;;
60908;SDS011;46780;48.128;-1.704;2023-08-30T01:13:21;14.05;;;6.00;;
60908;SDS011;46780;48.128;-1.704;2023-08-30T01:15:48;13.38;;;5.95;;
60908;SDS011;46780;48.128;-1.704;2023-08-30T01:18:22;15.00;;;5.90;;
60908;SDS011;46780;48.128;-1.704;2023-08-30T01:20:54;15.57;;;5.80;;
60908;SDS011;46780;48.128;-1.704;2023-08-30T01:23:24;13.98;;;5.50;;
60908;SDS011;46780;48.128;-1.704;2023-08-30T01:26:03;15.07;;;5.75;;
60908;SDS011;46780;48.128;-1.704;2023-08-30T01:28:35;13.57;;;5.93;;
60908;SDS011;46780;48.128;-1.704;2023-08-30T01:31:02;11.35;;;5.72;;
60908;SDS011;46780;48.128;-1.704;2023-08-30T01:33:32;12.57;;;5.45;;
60908;SDS011;46780;48.128;-1.704;2023-08-30T01:35:59;14.93;;;6.05;;
60908;SDS011;46780;48.128;-1.704;2023-08-30T01:38:28;12.23;;;5.68;;
60908;SDS011;46780;48.128;-1.704;2023-08-30T01:40:56;11.88;;;5.80;;
60908;SDS011;46780;48.128;-1.704;2023-08-30T01:43:24;14.60;;;5.78;;
60908;SDS011;46780;48.128;-1.704;2023-08-30T01:45:53;12.40;;;5.32;;
60908;SDS011;46780;48.128;-1.704;2023-08-30T01:48:20;10.65;;;4.53;;
60908;SDS011;46780;48.128;-1.704;2023-08-30T01:50:47;9.30;;;3.53;;
60908;SDS011;46780;48.128;-1.704;2023-08-30T01:53:13;10.57;;;2.80;;
60908;SDS011;46780;48.128;-1.704;2023-08-30T01:55:41;7.28;;;2.42;;
60908;SDS011;46780;48.128;-1.704;2023-08-30T01:58:08;6.93;;;2.20;;
60908;SDS011;46780;48.128;-1.704;2023-08-30T02:00:35;6.95;;;2.33;;
60908;SDS011;46780;48.128;-1.704;2023-08-30T02:03:08;4.90;;;2.10;;
60908;SDS011;46780;48.128;-1.704;2023-08-30T02:05:35;6.32;;;2.13;;
60908;SDS011;46780;48.128;-1.704;2023-08-30T02:08:09;3.92;;;2.13;;
60908;SDS011;46780;48.128;-1.704;2023-08-30T02:10:41;13.32;;;2.00;;
60908;SDS011;46780;48.128;-1.704;2023-08-30T02:13:12;8.90;;;1.90;;
60908;SDS011;46780;48.128;-1.704;2023-08-30T02:15:40;7.15;;;2.00;;
60908;SDS011;46780;48.128;-1.704;2023-08-30T02:18:10;7.00;;;2.10;;
60908;SDS011;46780;48.128;-1.704;2023-08-30T02:20:36;6.63;;;1.98;;
60908;SDS011;46780;48.128;-1.704;2023-08-30T02:23:03;8.30;;;1.98;;
60908;SDS011;46780;48.128;-1.704;2023-08-30T02:25:29;6.43;;;1.90;;
60908;SDS011;46780;48.128;-1.704;2023-08-30T02:27:56;7.78;;;2.03;;
60908;SDS011;46780;48.128;-1.704;2023-08-30T02:30:22;5.85;;;2.00;;
60908;SDS011;46780;48.128;-1.704;2023-08-30T02:32:49;5.75;;;1.90;;
60908;SDS011;46780;48.128;-1.704;2023-08-30T02:35:17;7.53;;;2.10;;
60908;SDS011;46780;48.128;-1.704;2023-08-30T02:37:43;8.93;;;2.30;;
60908;SDS011;46780;48.128;-1.704;2023-08-30T02:40:10;10.70;;;2.10;;
60908;SDS011;46780;48.128;-1.704;2023-08-30T02:42:37;7.07;;;2.10;;
60908;SDS011;46780;48.128;-1.704;2023-08-30T02:45:03;7.93;;;2.10;;
60908;SDS011;46780;48.128;-1.704;2023-08-30T02:47:30;7.40;;;2.08;;
60908;SDS011;46780;48.128;-1.704;2023-08-30T02:49:57;7.70;;;2.22;;
60908;SDS011;46780;48.128;-1.704;2023-08-30T02:52:25;7.38;;;2.42;;
60908;SDS011;46780;48.128;-1.704;2023-08-30T02:54:51;6.97;;;2.13;;
60908;SDS011;46780;48.128;-1.704;2023-08-30T02:57:18;7.70;;;2.20;;
60908;SDS011;46780;48.128;-1.704;2023-08-30T02:59:44;6.40;;;2.10;;
60908;SDS011;46780;48.128;-1.704;2023-08-30T03:02:11;7.15;;;2.20;;
60908;SDS011;46780;48.128;-1.704;2023-08-30T03:04:37;10.88;;;2.20;;
60908;SDS011;46780;48.128;-1.704;2023-08-30T03:07:03;7.18;;;2.00;;
60908;SDS011;46780;48.128;-1.704;2023-08-30T03:09:31;6.65;;;2.30;;
60908;SDS011;46780;48.128;-1.704;2023-08-30T03:11:58;7.40;;;2.10;;
60908;SDS011;46780;48.128;-1.704;2023-08-30T03:14:24;9.02;;;2.15;;
60908;SDS011;46780;48.128;-1.704;2023-08-30T03:16:51;8.15;;;2.40;;
60908;SDS011;46780;48.128;-1.704;2023-08-30T03:19:17;5.13;;;2.25;;
60908;SDS011;46780;48.128;-1.704;2023-08-30T03:21:44;6.18;;;2.30;;
60908;SDS011;46780;48.128;-1.704;2023-08-30T03:24:11;8.38;;;2.38;;
60908;SDS011;46780;48.128;-1.704;2023-08-30T03:26:39;7.72;;;2.67;;
60908;SDS011;46780;48.128;-1.704;2023-08-30T03:29:06;6.65;;;2.33;;
60908;SDS011;46780;48.128;-1.704;2023-08-30T03:31:32;6.25;;;2.30;;
60908;SDS011;46780;48.128;-1.704;2023-08-30T03:33:58;5.82;;;2.47;;
60908;SDS011;46780;48.128;-1.704;2023-08-30T03:36:25;10.30;;;2.88;;
60908;SDS011;46780;48.128;-1.704;2023-08-30T03:38:51;8.52;;;2.35;;
60908;SDS011;46780;48.128;-1.704;2023-08-30T03:41:18;7.70;;;2.72;;
60908;SDS011;46780;48.128;-1.704;2023-08-30T03:43:46;8.15;;;2.60;;
60908;SDS011;46780;48.128;-1.704;2023-08-30T03:46:12;7.50;;;2.55;;
60908;SDS011;46780;48.128;-1.704;2023-08-30T03:48:38;8.88;;;2.78;;
60908;SDS011;46780;48.128;-1.704;2023-08-30T03:51:05;9.25;;;2.60;;
60908;SDS011;46780;48.128;-1.704;2023-08-30T03:53:31;6.05;;;2.55;;
60908;SDS011;46780;48.128;-1.704;2023-08-30T03:55:58;8.10;;;2.70;;
60908;SDS011;46780;48.128;-1.704;2023-08-30T03:58:24;8.57;;;2.55;;
60908;SDS011;46780;48.128;-1.704;2023-08-30T04:00:52;7.22;;;2.30;;
60908;SDS011;46780;48.128;-1.704;2023-08-30T04:03:19;9.82;;;2.60;;
60908;SDS011;46780;48.128;-1.704;2023-08-30T04:05:45;6.38;;;2.35;;
60908;SDS011;46780;48.128;-1.704;2023-08-30T04:08:11;7.97;;;2.60;;
60908;SDS011;46780;48.128;-1.704;2023-08-30T04:10:38;11.10;;;2.58;;
60908;SDS011;46780;48.128;-1.704;2023-08-30T04:13:06;6.82;;;2.65;;
60908;SDS011;46780;48.128;-1.704;2023-08-30T04:15:33;8.48;;;3.00;;
60908;SDS011;46780;48.128;-1.704;2023-08-30T04:18:01;11.05;;;2.90;;
60908;SDS011;46780;48.128;-1.704;2023-08-30T04:20:28;7.07;;;3.00;;
60908;SDS011;46780;48.128;-1.704;2023-08-30T04:22:55;9.02;;;3.22;;
60908;SDS011;46780;48.128;-1.704;2023-08-30T04:25:22;8.82;;;2.88;;
60908;SDS011;46780;48.128;-1.704;2023-08-30T04:27:48;10.00;;;2.97;;
60908;SDS011;46780;48.128;-1.704;2023-08-30T04:30:15;7.70;;;2.97;;
60908;SDS011;46780;48.128;-1.704;2023-08-30T04:32:42;8.57;;;2.95;;
60908;SDS011;46780;48.128;-1.704;2023-08-30T04:35:10;7.00;;;2.78;;
60908;SDS011;46780;48.128;-1.704;2023-08-30T04:37:36;8.32;;;3.00;;
60908;SDS011;46780;48.128;-1.704;2023-08-30T04:40:03;9.05;;;3.20;;
60908;SDS011;46780;48.128;-1.704;2023-08-30T04:42:30;10.13;;;3.20;;
60908;SDS011;46780;48.128;-1.704;2023-08-30T04:44:56;9.00;;;3.20;;
60908;SDS011;46780;48.128;-1.704;2023-08-30T04:47:23;9.73;;;3.53;;
60908;SDS011;46780;48.128;-1.704;2023-08-30T04:49:49;9.75;;;3.20;;
60908;SDS011;46780;48.128;-1.704;2023-08-30T04:52:17;8.30;;;2.78;;
60908;SDS011;46780;48.128;-1.704;2023-08-30T04:54:44;11.05;;;2.85;;
60908;SDS011;46780;48.128;-1.704;2023-08-30T04:57:10;9.15;;;2.88;;
60908;SDS011;46780;48.128;-1.704;2023-08-30T04:59:37;7.97;;;2.78;;
60908;SDS011;46780;48.128;-1.704;2023-08-30T05:02:03;9.55;;;3.03;;
60908;SDS011;46780;48.128;-1.704;2023-08-30T05:04:30;10.40;;;2.97;;
60908;SDS011;46780;48.128;-1.704;2023-08-30T05:06:56;10.77;;;2.88;;
60908;SDS011;46780;48.128;-1.704;2023-08-30T05:09:24;9.25;;;3.00;;
60908;SDS011;46780;48.128;-1.704;2023-08-30T05:11:50;7.00;;;2.53;;
60908;SDS011;46780;48.128;-1.704;2023-08-30T05:14:17;10.50;;;2.92;;
60908;SDS011;46780;48.128;-1.704;2023-08-30T05:16:43;12.10;;;3.08;;
60908;SDS011;46780;48.128;-1.704;2023-08-30T05:19:10;8.50;;;2.90;;
60908;SDS011;46780;48.128;-1.704;2023-08-30T05:21:36;14.35;;;2.78;;
60908;SDS011;46780;48.128;-1.704;2023-08-30T05:24:03;8.35;;;2.58;;
60908;SDS011;46780;48.128;-1.704;2023-08-30T05:26:31;10.80;;;2.70;;
60908;SDS011;46780;48.128;-1.704;2023-08-30T05:28:57;10.57;;;2.95;;
60908;SDS011;46780;48.128;-1.704;2023-08-30T05:31:24;10.55;;;2.80;;
60908;SDS011;46780;48.128;-1.704;2023-08-30T05:33:50;11.20;;;2.72;;
60908;SDS011;46780;48.128;-1.704;2023-08-30T05:36:17;11.60;;;3.08;;
60908;SDS011;46780;48.128;-1.704;2023-08-30T05:38:43;10.77;;;2.90;;
60908;SDS011;46780;48.128;-1.704;2023-08-30T05:41:10;11.05;;;2.70;;
60908;SDS011;46780;48.128;-1.704;2023-08-30T05:43:37;9.35;;;3.00;;
60908;SDS011;46780;48.128;-1.704;2023-08-30T05:46:04;12.27;;;3.05;;
60908;SDS011;46780;48.128;-1.704;2023-08-30T05:48:30;10.05;;;2.85;;
60908;SDS011;46780;48.128;-1.704;2023-08-30T05:50:58;13.75;;;3.20;;
60908;SDS011;46780;48.128;-1.704;2023-08-30T05:53:25;13.95;;;3.10;;
60908;SDS011;46780;48.128;-1.704;2023-08-30T05:55:51;10.50;;;2.95;;
60908;SDS011;46780;48.128;-1.704;2023-08-30T05:58:18;13.85;;;3.25;;
60908;SDS011;46780;48.128;-1.704;2023-08-30T06:00:45;12.77;;;3.05;;
60908;SDS011;46780;48.128;-1.704;2023-08-30T06:03:12;9.85;;;2.95;;
60908;SDS011;46780;48.128;-1.704;2023-08-30T06:05:38;10.82;;;2.83;;
60908;SDS011;46780;48.128;-1.704;2023-08-30T06:08:05;12.52;;;3.20;;
60908;SDS011;46780;48.128;-1.704;2023-08-30T06:10:31;10.32;;;3.03;;
60908;SDS011;46780;48.128;-1.704;2023-08-30T06:12:58;10.68;;;2.83;;
60908;SDS011;46780;48.128;-1.704;2023-08-30T06:15:24;12.50;;;3.10;;
60908;SDS011;46780;48.128;-1.704;2023-08-30T06:17:52;10.32;;;3.28;;
60908;SDS011;46780;48.128;-1.704;2023-08-30T06:20:18;12.52;;;3.17;;
60908;SDS011;46780;48.128;-1.704;2023-08-30T06:22:45;12.75;;;3.03;;
60908;SDS011;46780;48.128;-1.704;2023-08-30T06:25:11;11.50;;;3.17;;
60908;SDS011;46780;48.128;-1.704;2023-08-30T06:27:40;14.35;;;3.50;;
60908;SDS011;46780;48.128;-1.704;2023-08-30T06:30:08;10.90;;;3.22;;
60908;SDS011;46780;48.128;-1.704;2023-08-30T06:32:35;12.25;;;3.13;;
60908;SDS011;46780;48.128;-1.704;2023-08-30T06:35:03;14.10;;;3.15;;
60908;SDS011;46780;48.128;-1.704;2023-08-30T06:37:30;10.73;;;3.28;;
60908;SDS011;46780;48.128;-1.704;2023-08-30T06:39:57;15.38;;;3.67;;
60908;SDS011;46780;48.128;-1.704;2023-08-30T06:42:23;12.60;;;3.45;;
60908;SDS011;46780;48.128;-1.704;2023-08-30T06:44:49;11.88;;;3.25;;
60908;SDS011;46780;48.128;-1.704;2023-08-30T06:47:16;14.45;;;3.20;;
60908;SDS011;46780;48.128;-1.704;2023-08-30T06:49:42;12.93;;;3.40;;
60908;SDS011;46780;48.128;-1.704;2023-08-30T06:52:10;12.27;;;3.08;;
60908;SDS011;46780;48.128;-1.704;2023-08-30T06:54:36;13.75;;;3.38;;
60908;SDS011;46780;48.128;-1.704;2023-08-30T06:57:03;13.82;;;3.35;;
60908;SDS011;46780;48.128;-1.704;2023-08-30T06:59:30;15.60;;;3.20;;
60908;SDS011;46780;48.128;-1.704;2023-08-30T07:01:56;17.25;;;3.47;;
60908;SDS011;46780;48.128;-1.704;2023-08-30T07:04:23;11.32;;;3.45;;
60908;SDS011;46780;48.128;-1.704;2023-08-30T07:06:49;11.05;;;3.03;;
60908;SDS011;46780;48.128;-1.704;2023-08-30T07:09:17;11.70;;;3.38;;
60908;SDS011;46780;48.128;-1.704;2023-08-30T07:11:44;13.98;;;3.17;;
60908;SDS011;46780;48.128;-1.704;2023-08-30T07:14:10;12.48;;;3.05;;
60908;SDS011;46780;48.128;-1.704;2023-08-30T07:16:37;15.73;;;3.40;;
60908;SDS011;46780;48.128;-1.704;2023-08-30T07:19:03;14.25;;;3.30;;
60908;SDS011;46780;48.128;-1.704;2023-08-30T07:21:30;13.57;;;3.33;;
60908;SDS011;46780;48.128;-1.704;2023-08-30T07:23:56;11.45;;;3.05;;
60908;SDS011;46780;48.128;-1.704;2023-08-30T07:26:24;12.18;;;3.03;;
60908;SDS011;46780;48.128;-1.704;2023-08-30T07:28:51;12.43;;;3.67;;
60908;SDS011;46780;48.128;-1.704;2023-08-30T07:31:17;11.32;;;3.03;;
60908;SDS011;46780;48.128;-1.704;2023-08-30T07:33:43;11.30;;;3.17;;
60908;SDS011;46780;48.128;-1.704;2023-08-30T07:36:10;15.30;;;3.20;;
60908;SDS011;46780;48.128;-1.704;2023-08-30T07:38:36;13.13;;;3.10;;
60908;SDS011;46780;48.128;-1.704;2023-08-30T07:41:03;12.35;;;3.42;;
60908;SDS011;46780;48.128;-1.704;2023-08-30T07:43:31;12.73;;;3.33;;
60908;SDS011;46780;48.128;-1.704;2023-08-30T07:45:57;12.10;;;3.15;;
60908;SDS011;46780;48.128;-1.704;2023-08-30T07:48:24;14.75;;;3.60;;
60908;SDS011;46780;48.128;-1.704;2023-08-30T07:50:51;14.25;;;3.40;;
60908;SDS011;46780;48.128;-1.704;2023-08-30T07:53:17;12.77;;;3.20;;
60908;SDS011;46780;48.128;-1.704;2023-08-30T07:55:47;12.00;;;3.45;;
60908;SDS011;46780;48.128;-1.704;2023-08-30T07:58:14;15.80;;;3.42;;
60908;SDS011;46780;48.128;-1.704;2023-08-30T08:00:42;10.25;;;3.15;;
60908;SDS011;46780;48.128;-1.704;2023-08-30T08:03:08;12.90;;;3.25;;
60908;SDS011;46780;48.128;-1.704;2023-08-30T08:05:35;15.00;;;3.30;;
60908;SDS011;46780;48.128;-1.704;2023-08-30T08:08:01;14.00;;;3.10;;
60908;SDS011;46780;48.128;-1.704;2023-08-30T08:10:28;9.52;;;2.70;;
60908;SDS011;46780;48.128;-1.704;2023-08-30T08:12:57;13.02;;;3.20;;
60908;SDS011;46780;48.128;-1.704;2023-08-30T08:15:24;12.68;;;2.92;;
60908;SDS011;46780;48.128;-1.704;2023-08-30T08:17:52;12.57;;;3.13;;
60908;SDS011;46780;48.128;-1.704;2023-08-30T08:20:18;15.93;;;3.20;;
60908;SDS011;46780;48.128;-1.704;2023-08-30T08:22:45;12.00;;;2.92;;
60908;SDS011;46780;48.128;-1.704;2023-08-30T08:25:11;10.77;;;3.00;;
60908;SDS011;46780;48.128;-1.704;2023-08-30T08:27:38;13.10;;;3.00;;
60908;SDS011;46780;48.128;-1.704;2023-08-30T08:30:05;12.55;;;3.22;;
60908;SDS011;46780;48.128;-1.704;2023-08-30T08:32:32;9.98;;;2.80;;
60908;SDS011;46780;48.128;-1.704;2023-08-30T08:35:00;16.23;;;2.97;;
60908;SDS011;46780;48.128;-1.704;2023-08-30T08:37:26;12.02;;;3.17;;
60908;SDS011;46780;48.128;-1.704;2023-08-30T08:39:53;14.98;;;3.40;;
60908;SDS011;46780;48.128;-1.704;2023-08-30T08:42:19;15.50;;;3.35;;
60908;SDS011;46780;48.128;-1.704;2023-08-30T08:44:47;15.45;;;3.53;;
60908;SDS011;46780;48.128;-1.704;2023-08-30T08:47:17;14.07;;;3.70;;
60908;SDS011;46780;48.128;-1.704;2023-08-30T08:49:45;15.52;;;3.65;;
60908;SDS011;46780;48.128;-1.704;2023-08-30T08:52:14;12.88;;;3.70;;
60908;SDS011;46780;48.128;-1.704;2023-08-30T08:54:41;11.85;;;3.30;;
60908;SDS011;46780;48.128;-1.704;2023-08-30T08:57:09;13.82;;;3.50;;
60908;SDS011;46780;48.128;-1.704;2023-08-30T08:59:35;15.45;;;3.50;;
60908;SDS011;46780;48.128;-1.704;2023-08-30T09:02:02;11.23;;;3.42;;
60908;SDS011;46780;48.128;-1.704;2023-08-30T09:04:30;13.10;;;3.22;;
60908;SDS011;46780;48.128;-1.704;2023-08-30T09:06:57;11.30;;;3.40;;
60908;SDS011;46780;48.128;-1.704;2023-08-30T09:09:26;15.10;;;3.45;;
60908;SDS011;46780;48.128;-1.704;2023-08-30T09:11:52;13.60;;;3.38;;
60908;SDS011;46780;48.128;-1.704;2023-08-30T09:14:19;15.15;;;3.75;;
60908;SDS011;46780;48.128;-1.704;2023-08-30T09:16:53;19.85;;;4.28;;
60908;SDS011;46780;48.128;-1.704;2023-08-30T09:19:20;25.92;;;5.05;;
60908;SDS011;46780;48.128;-1.704;2023-08-30T09:21:50;19.65;;;3.17;;
60908;SDS011;46780;48.128;-1.704;2023-08-30T09:24:17;14.80;;;3.30;;
60908;SDS011;46780;48.128;-1.704;2023-08-30T09:26:48;11.80;;;3.03;;
60908;SDS011;46780;48.128;-1.704;2023-08-30T09:29:16;15.98;;;3.13;;
60908;SDS011;46780;48.128;-1.704;2023-08-30T09:31:43;12.68;;;3.15;;
60908;SDS011;46780;48.128;-1.704;2023-08-30T09:34:10;13.77;;;3.33;;
60908;SDS011;46780;48.128;-1.704;2023-08-30T09:36:37;15.35;;;3.50;;
60908;SDS011;46780;48.128;-1.704;2023-08-30T09:39:05;18.02;;;3.90;;
60908;SDS011;46780;48.128;-1.704;2023-08-30T09:41:32;16.05;;;3.40;;
60908;SDS011;46780;48.128;-1.704;2023-08-30T09:44:05;12.02;;;3.10;;
60908;SDS011;46780;48.128;-1.704;2023-08-30T09:46:32;13.65;;;3.10;;
60908;SDS011;46780;48.128;-1.704;2023-08-30T09:49:05;13.77;;;3.50;;
60908;SDS011;46780;48.128;-1.704;2023-08-30T09:51:31;11.02;;;3.10;;
60908;SDS011;46780;48.128;-1.704;2023-08-30T09:54:00;14.82;;;2.95;;
60908;SDS011;46780;48.128;-1.704;2023-08-30T09:56:30;11.50;;;2.97;;
60908;SDS011;46780;48.128;-1.704;2023-08-30T09:58:58;11.75;;;3.17;;
60908;SDS011;46780;48.128;-1.704;2023-08-30T10:01:26;12.35;;;2.75;;
60908;SDS011;46780;48.128;-1.704;2023-08-30T10:03:53;15.30;;;3.10;;
60908;SDS011;46780;48.128;-1.704;2023-08-30T10:06:22;11.32;;;2.80;;
60908;SDS011;46780;48.128;-1.704;2023-08-30T10:08:50;11.68;;;2.80;;
60908;SDS011;46780;48.128;-1.704;2023-08-30T10:11:19;13.97;;;3.00;;
60908;SDS011;46780;48.128;-1.704;2023-08-30T10:13:46;11.27;;;3.17;;
60908;SDS011;46780;48.128;-1.704;2023-08-30T10:16:15;11.85;;;3.15;;
60908;SDS011;46780;48.128;-1.704;2023-08-30T10:18:47;13.40;;;3.30;;
60908;SDS011;46780;48.128;-1.704;2023-08-30T10:21:16;12.82;;;2.97;;
60908;SDS011;46780;48.128;-1.704;2023-08-30T10:23:44;16.73;;;3.05;;
60908;SDS011;46780;48.128;-1.704;2023-08-30T10:26:14;16.58;;;3.45;;
60908;SDS011;46780;48.128;-1.704;2023-08-30T10:28:42;15.25;;;3.25;;
60908;SDS011;46780;48.128;-1.704;2023-08-30T10:31:09;14.68;;;3.30;;
60908;SDS011;46780;48.128;-1.704;2023-08-30T10:33:50;16.92;;;3.65;;
60908;SDS011;46780;48.128;-1.704;2023-08-30T10:36:21;13.55;;;3.20;;
60908;SDS011;46780;48.128;-1.704;2023-08-30T10:38:48;15.40;;;3.45;;
60908;SDS011;46780;48.128;-1.704;2023-08-30T10:41:19;16.73;;;3.60;;
60908;SDS011;46780;48.128;-1.704;2023-08-30T10:43:49;12.35;;;3.33;;
60908;SDS011;46780;48.128;-1.704;2023-08-30T10:46:16;17.98;;;3.70;;
60908;SDS011;46780;48.128;-1.704;2023-08-30T10:48:42;19.67;;;3.67;;
60908;SDS011;46780;48.128;-1.704;2023-08-30T10:51:19;15.90;;;3.53;;
60908;SDS011;46780;48.128;-1.704;2023-08-30T10:53:55;18.88;;;4.28;;
60908;SDS011;46780;48.128;-1.704;2023-08-30T10:56:26;13.57;;;3.80;;
60908;SDS011;46780;48.128;-1.704;2023-08-30T10:58:53;16.95;;;3.55;;
60908;SDS011;46780;48.128;-1.704;2023-08-30T11:01:20;18.40;;;3.72;;
60908;SDS011;46780;48.128;-1.704;2023-08-30T11:03:47;13.55;;;3.90;;
60908;SDS011;46780;48.128;-1.704;2023-08-30T11:06:15;16.42;;;3.80;;
60908;SDS011;46780;48.128;-1.704;2023-08-30T11:08:42;16.45;;;3.75;;
60908;SDS011;46780;48.128;-1.704;2023-08-30T11:11:10;14.48;;;3.80;;
60908;SDS011;46780;48.128;-1.704;2023-08-30T11:13:37;17.27;;;3.83;;
60908;SDS011;46780;48.128;-1.704;2023-08-30T11:16:03;13.68;;;3.40;;
60908;SDS011;46780;48.128;-1.704;2023-08-30T11:18:30;15.52;;;3.63;;
60908;SDS011;46780;48.128;-1.704;2023-08-30T11:21:11;15.57;;;3.78;;
60908;SDS011;46780;48.128;-1.704;2023-08-30T11:23:45;14.60;;;3.70;;
60908;SDS011;46780;48.128;-1.704;2023-08-30T11:26:14;15.65;;;3.92;;
60908;SDS011;46780;48.128;-1.704;2023-08-30T11:31:08;27.08;;;4.68;;
60908;SDS011;46780;48.128;-1.704;2023-08-30T11:33:35;17.25;;;3.97;;
60908;SDS011;46780;48.128;-1.704;2023-08-30T11:36:01;15.77;;;4.13;;
60908;SDS011;46780;48.128;-1.704;2023-08-30T11:38:36;15.88;;;3.92;;
60908;SDS011;46780;48.128;-1.704;2023-08-30T11:41:05;20.02;;;4.35;;
60908;SDS011;46780;48.128;-1.704;2023-08-30T11:43:32;17.35;;;4.05;;
60908;SDS011;46780;48.128;-1.704;2023-08-30T11:45:59;17.42;;;4.28;;
60908;SDS011;46780;48.128;-1.704;2023-08-30T11:48:26;21.98;;;4.38;;
60908;SDS011;46780;48.128;-1.704;2023-08-30T11:50:53;17.02;;;3.85;;
60908;SDS011;46780;48.128;-1.704;2023-08-30T11:53:19;25.60;;;4.95;;
60908;SDS011;46780;48.128;-1.704;2023-08-30T11:55:46;21.58;;;4.72;;
60908;SDS011;46780;48.128;-1.704;2023-08-30T11:58:14;25.08;;;4.75;;
60908;SDS011;46780;48.128;-1.704;2023-08-30T12:00:43;23.52;;;4.90;;
60908;SDS011;46780;48.128;-1.704;2023-08-30T12:03:13;20.00;;;4.30;;
60908;SDS011;46780;48.128;-1.704;2023-08-30T12:05:43;21.13;;;4.60;;
60908;SDS011;46780;48.128;-1.704;2023-08-30T12:08:17;17.92;;;4.20;;
60908;SDS011;46780;48.128;-1.704;2023-08-30T12:10:43;21.85;;;4.53;;
60908;SDS011;46780;48.128;-1.704;2023-08-30T12:13:20;21.10;;;4.20;;
60908;SDS011;46780;48.128;-1.704;2023-08-30T12:15:47;20.05;;;4.55;;
60908;SDS011;46780;48.128;-1.704;2023-08-30T12:18:14;18.50;;;4.50;;
60908;SDS011;46780;48.128;-1.704;2023-08-30T12:20:50;18.40;;;4.80;;
60908;SDS011;46780;48.128;-1.704;2023-08-30T12:23:20;18.95;;;4.30;;
60908;SDS011;46780;48.128;-1.704;2023-08-30T12:28:25;19.20;;;4.60;;
60908;SDS011;46780;48.128;-1.704;2023-08-30T12:30:51;19.25;;;4.22;;
60908;SDS011;46780;48.128;-1.704;2023-08-30T12:33:18;18.35;;;4.03;;
60908;SDS011;46780;48.128;-1.704;2023-08-30T12:35:45;24.48;;;4.38;;
60908;SDS011;46780;48.128;-1.704;2023-08-30T12:38:11;19.13;;;4.35;;
60908;SDS011;46780;48.128;-1.704;2023-08-30T12:40:38;21.67;;;4.60;;
60908;SDS011;46780;48.128;-1.704;2023-08-30T12:43:04;26.92;;;4.22;;
60908;SDS011;46780;48.128;-1.704;2023-08-30T12:45:32;19.77;;;4.03;;
60908;SDS011;46780;48.128;-1.704;2023-08-30T12:47:58;21.30;;;4.43;;
60908;SDS011;46780;48.128;-1.704;2023-08-30T12:50:25;27.20;;;4.80;;
60908;SDS011;46780;48.128;-1.704;2023-08-30T12:52:51;21.50;;;4.35;;
60908;SDS011;46780;48.128;-1.704;2023-08-30T12:55:18;22.13;;;4.63;;
60908;SDS011;46780;48.128;-1.704;2023-08-30T12:57:44;19.98;;;3.85;;
60908;SDS011;46780;48.128;-1.704;2023-08-30T13:00:11;21.58;;;4.28;;
60908;SDS011;46780;48.128;-1.704;2023-08-30T13:02:39;22.20;;;4.03;;
60908;SDS011;46780;48.128;-1.704;2023-08-30T13:05:06;18.35;;;4.25;;
60908;SDS011;46780;48.128;-1.704;2023-08-30T13:07:33;20.10;;;4.03;;
60908;SDS011;46780;48.128;-1.704;2023-08-30T13:09:59;20.85;;;3.95;;
60908;SDS011;46780;48.128;-1.704;2023-08-30T13:12:26;21.33;;;4.15;;
60908;SDS011;46780;48.128;-1.704;2023-08-30T13:14:52;19.25;;;3.95;;
60908;SDS011;46780;48.128;-1.704;2023-08-30T13:17:19;16.38;;;3.63;;
60908;SDS011;46780;48.128;-1.704;2023-08-30T13:19:46;18.63;;;4.15;;
60908;SDS011;46780;48.128;-1.704;2023-08-30T13:22:13;16.65;;;3.75;;
60908;SDS011;46780;48.128;-1.704;2023-08-30T13:24:39;18.23;;;4.05;;
60908;SDS011;46780;48.128;-1.704;2023-08-30T13:27:06;17.63;;;4.20;;
60908;SDS011;46780;48.128;-1.704;2023-08-30T13:29:32;18.13;;;4.00;;
60908;SDS011;46780;48.128;-1.704;2023-08-30T13:31:59;20.23;;;4.15;;
60908;SDS011;46780;48.128;-1.704;2023-08-30T13:34:25;19.08;;;3.90;;
60908;SDS011;46780;48.128;-1.704;2023-08-30T13:36:53;16.35;;;3.95;;
60908;SDS011;46780;48.128;-1.704;2023-08-30T13:39:20;20.65;;;4.22;;
60908;SDS011;46780;48.128;-1.704;2023-08-30T13:41:46;20.95;;;4.05;;
60908;SDS011;46780;48.128;-1.704;2023-08-30T13:44:13;20.35;;;4.10;;
60908;SDS011;46780;48.128;-1.704;2023-08-30T13:46:43;19.10;;;4.00;;
60908;SDS011;46780;48.128;-1.704;2023-08-30T13:49:10;21.70;;;4.22;;
60908;SDS011;46780;48.128;-1.704;2023-08-30T13:51:36;20.90;;;4.10;;
60908;SDS011;46780;48.128;-1.704;2023-08-30T13:54:04;22.45;;;4.63;;
60908;SDS011;46780;48.128;-1.704;2023-08-30T13:56:31;20.98;;;4.57;;
60908;SDS011;46780;48.128;-1.704;2023-08-30T13:58:57;22.80;;;4.47;;
60908;SDS011;46780;48.128;-1.704;2023-08-30T14:01:24;20.05;;;4.30;;
60908;SDS011;46780;48.128;-1.704;2023-08-30T14:03:50;19.08;;;4.13;;
60908;SDS011;46780;48.128;-1.704;2023-08-30T14:06:17;17.48;;;4.15;;
60908;SDS011;46780;48.128;-1.704;2023-08-30T14:08:43;19.00;;;4.10;;
60908;SDS011;46780;48.128;-1.704;2023-08-30T14:11:11;21.13;;;4.40;;
60908;SDS011;46780;48.128;-1.704;2023-08-30T14:13:38;25.23;;;5.00;;
60908;SDS011;46780;48.128;-1.704;2023-08-30T14:16:04;22.98;;;4.40;;
60908;SDS011;46780;48.128;-1.704;2023-08-30T14:18:31;16.60;;;3.75;;
60908;SDS011;46780;48.128;-1.704;2023-08-30T14:20:58;16.65;;;3.80;;
60908;SDS011;46780;48.128;-1.704;2023-08-30T14:23:25;18.35;;;4.22;;
60908;SDS011;46780;48.128;-1.704;2023-08-30T14:25:55;19.10;;;4.70;;
60908;SDS011;46780;48.128;-1.704;2023-08-30T14:30:50;30.48;;;5.05;;
60908;SDS011;46780;48.128;-1.704;2023-08-30T14:33:17;53.90;;;8.27;;